Time;durP1;ratioP1;P1;durP2;ratioP2;P2;SDS_P1;SDS_P2;PMS_P1;PMS_P2;Temp;Humidity;BMP_temperature;BMP_pressure;BME280_temperature;BME280_humidity;BME280_pressure;Samples;Min_cycle;Max_cycle;Signal;HPM_P1;HPM_P2
2024/04/07 00:01:32;;;;;;;4.70;2.85;;;18.80;70.30;;;;;;5071429;28;20354;-31
2024/04/07 00:03:58;;;;;;;4.93;2.67;;;18.70;69.70;;;;;;5071566;28;20028;-31
2024/04/07 00:06:24;;;;;;;5.47;2.67;;;18.70;69.70;;;;;;5071106;28;20025;-38
2024/04/07 00:08:50;;;;;;;5.38;2.30;;;18.70;69.60;;;;;;5071212;28;20028;-31
2024/04/07 00:11:16;;;;;;;4.15;2.60;;;18.70;69.60;;;;;;5071167;28;20082;-30
2024/04/07 00:13:42;;;;;;;5.40;2.63;;;18.70;69.80;;;;;;5071856;28;20465;-31
2024/04/07 00:16:07;;;;;;;4.28;2.30;;;18.70;69.70;;;;;;5071254;28;20437;-32
2024/04/07 00:18:34;;;;;;;6.70;2.17;;;18.70;69.40;;;;;;5071968;28;20040;-34
2024/04/07 00:21:04;;;;;;;2.83;2.10;;;18.80;69.30;;;;;;5075399;28;20028;-31
2024/04/07 00:23:30;;;;;;;2.85;2.03;;;18.80;69.00;;;;;;5075334;28;20485;-31
2024/04/07 00:25:56;;;;;;;3.67;2.10;;;18.90;68.70;;;;;;5075045;28;20032;-35
2024/04/07 00:28:22;;;;;;;2.75;2.03;;;18.90;68.50;;;;;;5074982;28;20055;-32
2024/04/07 00:30:48;;;;;;;4.00;1.95;;;19.00;68.40;;;;;;5075040;28;20031;-30
2024/04/07 00:33:14;;;;;;;3.78;1.95;;;19.00;68.30;;;;;;5075192;28;20016;-38
2024/04/07 00:35:40;;;;;;;2.72;2.03;;;19.00;68.30;;;;;;5074788;28;20046;-38
2024/04/07 00:38:06;;;;;;;3.25;2.30;;;19.00;68.20;;;;;;5074400;28;20063;-38
2024/04/07 00:40:31;;;;;;;3.67;2.25;;;19.00;68.20;;;;;;5075025;28;20093;-34
2024/04/07 00:42:57;;;;;;;5.03;2.20;;;19.10;68.80;;;;;;5074393;28;20078;-36
2024/04/07 00:45:23;;;;;;;6.43;2.35;;;19.00;68.00;;;;;;5074977;28;20037;-42
2024/04/07 00:47:49;;;;;;;4.10;2.28;;;19.00;68.00;;;;;;5073224;28;20451;-39
2024/04/07 00:50:18;;;;;;;4.95;2.20;;;19.00;67.90;;;;;;5074551;28;20028;-36
2024/04/07 00:52:44;;;;;;;4.80;1.98;;;19.00;67.80;;;;;;5072940;28;20477;-42
2024/04/07 00:55:10;;;;;;;3.78;2.47;;;19.00;67.80;;;;;;5074322;28;20078;-36
2024/04/07 00:57:36;;;;;;;4.50;2.10;;;19.00;67.70;;;;;;5074595;28;20025;-36
2024/04/07 01:00:03;;;;;;;6.28;1.83;;;19.10;67.40;;;;;;5074313;28;20120;-34
2024/04/07 01:02:29;;;;;;;5.88;1.90;;;19.10;67.00;;;;;;5074084;28;20025;-39
2024/04/07 01:04:55;;;;;;;3.72;2.00;;;19.10;66.80;;;;;;5074999;28;20078;-40
2024/04/07 01:07:21;;;;;;;3.38;1.70;;;19.10;66.30;;;;;;5074722;28;20598;-36
2024/04/07 01:09:47;;;;;;;5.32;1.85;;;19.20;65.40;;;;;;5074633;28;20024;-39
2024/04/07 01:12:13;;;;;;;4.50;2.05;;;19.20;65.10;;;;;;5074358;28;20020;-43
2024/04/07 01:14:39;;;;;;;4.60;1.77;;;19.20;65.30;;;;;;5074205;28;20096;-36
2024/04/07 01:17:07;;;;;;;2.85;1.45;;;19.30;64.70;;;;;;5074637;28;20020;-45
2024/04/07 01:19:34;;;;;;;3.85;1.60;;;19.30;64.70;;;;;;5074308;28;20013;-39
2024/04/07 01:22:00;;;;;;;4.57;2.10;;;19.30;64.60;;;;;;5073876;28;20020;-30
2024/04/07 01:24:26;;;;;;;5.80;1.90;;;19.20;64.60;;;;;;5074083;28;20027;-37
2024/04/07 01:26:52;;;;;;;7.00;2.00;;;19.20;64.60;;;;;;5074025;28;20020;-38
2024/04/07 01:29:17;;;;;;;5.95;2.05;;;19.20;64.60;;;;;;5073941;28;20481;-39
2024/04/07 01:31:43;;;;;;;5.53;1.75;;;19.20;64.80;;;;;;5073234;28;20026;-35
2024/04/07 01:34:08;;;;;;;3.88;1.70;;;19.20;65.00;;;;;;5073764;28;20385;-33
2024/04/07 01:36:34;;;;;;;4.28;1.67;;;19.10;65.20;;;;;;5073750;28;20029;-34
2024/04/07 01:39:00;;;;;;;5.88;1.65;;;19.10;65.50;;;;;;5073737;28;20029;-36
2024/04/07 01:41:25;;;;;;;5.80;1.63;;;19.00;65.70;;;;;;5073994;28;20036;-35
2024/04/07 01:43:51;;;;;;;4.55;1.50;;;19.00;66.00;;;;;;5073598;28;20059;-36
2024/04/07 01:46:16;;;;;;;5.60;1.42;;;18.90;66.30;;;;;;5073922;28;20108;-37
2024/04/07 01:48:42;;;;;;;6.38;1.95;;;18.90;66.50;;;;;;5073788;28;20021;-33
2024/04/07 01:51:07;;;;;;;4.25;1.30;;;18.80;66.70;;;;;;5072007;28;20032;-33
2024/04/07 01:53:33;;;;;;;4.00;1.52;;;18.70;66.90;;;;;;5073487;28;20165;-36
2024/04/07 01:55:59;;;;;;;4.65;1.30;;;18.70;67.10;;;;;;5073405;28;20034;-33
2024/04/07 01:58:24;;;;;;;3.42;1.30;;;18.60;67.40;;;;;;5073256;28;20029;-37
2024/04/07 02:00:50;;;;;;;4.13;1.55;;;18.60;67.70;;;;;;5073081;28;20508;-37
2024/04/07 02:03:16;;;;;;;4.13;1.80;;;18.50;68.10;;;;;;5073052;28;20029;-38
2024/04/07 02:05:42;;;;;;;4.05;1.50;;;18.50;68.30;;;;;;5073361;28;20491;-34
2024/04/07 02:08:08;;;;;;;3.00;1.30;;;18.40;68.60;;;;;;5073307;28;20052;-36
2024/04/07 02:10:34;;;;;;;3.70;1.17;;;18.30;68.80;;;;;;5073816;28;20111;-40
2024/04/07 02:13:00;;;;;;;5.68;1.20;;;18.30;69.10;;;;;;5073408;28;20062;-35
2024/04/07 02:15:26;;;;;;;4.82;1.30;;;18.30;69.30;;;;;;5073815;28;20028;-32
2024/04/07 02:17:51;;;;;;;2.10;1.40;;;18.20;69.50;;;;;;5073295;28;20054;-32
2024/04/07 02:20:18;;;;;;;2.55;0.93;;;18.20;69.60;;;;;;5073639;28;20048;-33
2024/04/07 02:22:43;;;;;;;3.50;1.23;;;18.10;69.50;;;;;;5073476;28;20017;-31
2024/04/07 02:25:10;;;;;;;2.42;1.00;;;18.10;69.80;;;;;;5073639;28;20021;-31
2024/04/07 02:27:35;;;;;;;2.72;1.00;;;18.00;70.00;;;;;;5073327;28;20013;-35
2024/04/07 02:30:04;;;;;;;2.30;1.00;;;18.00;70.70;;;;;;5073470;28;20082;-30
2024/04/07 02:32:32;;;;;;;2.53;1.05;;;17.90;70.20;;;;;;5073000;28;20077;-31
2024/04/07 02:34:58;;;;;;;2.15;1.00;;;17.90;70.30;;;;;;5072966;28;20016;-31
2024/04/07 02:37:23;;;;;;;3.33;1.00;;;17.80;70.40;;;;;;5072804;28;20097;-33
2024/04/07 02:39:49;;;;;;;3.78;1.30;;;17.80;70.60;;;;;;5073206;28;20035;-38
2024/04/07 02:42:15;;;;;;;3.95;0.80;;;17.80;70.80;;;;;;5071875;28;20033;-33
2024/04/07 02:50:09;;;;;;;2.85;0.90;;;17.60;71.30;;;;;;5073009;28;20032;-34
2024/04/07 02:52:35;;;;;;;2.65;1.00;;;17.60;71.60;;;;;;5072788;28;20076;-31
2024/04/07 02:55:01;;;;;;;3.83;1.00;;;17.50;71.70;;;;;;5071745;28;20025;-31
2024/04/07 02:57:26;;;;;;;1.95;0.98;;;17.50;72.00;;;;;;5072713;28;20029;-32
2024/04/07 02:59:52;;;;;;;2.05;0.93;;;17.40;72.20;;;;;;5071278;28;20021;-36
2024/04/07 03:02:20;;;;;;;2.45;0.85;;;17.30;72.30;;;;;;5072696;28;20020;-35
2024/04/07 03:04:47;;;;;;;2.50;0.90;;;17.30;72.40;;;;;;5072764;28;20027;-35
2024/04/07 03:07:13;;;;;;;2.95;0.80;;;17.30;72.50;;;;;;5072637;28;20357;-34
2024/04/07 03:09:38;;;;;;;2.13;1.00;;;17.30;72.60;;;;;;5072465;28;20035;-36
2024/04/07 03:12:04;;;;;;;1.83;0.95;;;17.30;72.60;;;;;;5072244;28;20413;-32
2024/04/07 03:14:29;;;;;;;2.50;0.90;;;17.20;72.50;;;;;;5072192;28;20028;-33
2024/04/07 03:16:55;;;;;;;0.73;0.68;;;17.20;72.40;;;;;;5072411;28;20032;-31
2024/04/07 03:19:21;;;;;;;1.77;0.80;;;17.20;72.40;;;;;;5072264;28;20028;-31
2024/04/07 03:21:47;;;;;;;2.17;0.85;;;17.20;72.30;;;;;;5072597;28;20052;-31
2024/04/07 03:24:13;;;;;;;3.25;0.80;;;17.10;72.20;;;;;;5072280;28;20059;-31
2024/04/07 03:26:38;;;;;;;2.58;0.70;;;17.10;72.10;;;;;;5072571;28;20096;-32
2024/04/07 03:29:04;;;;;;;1.23;0.70;;;17.10;71.80;;;;;;5072315;28;20032;-34
2024/04/07 03:31:29;;;;;;;2.05;0.80;;;17.10;71.70;;;;;;5072108;28;20027;-33
2024/04/07 03:33:55;;;;;;;1.27;0.60;;;17.10;71.50;;;;;;5072292;28;20029;-31
2024/04/07 03:36:21;;;;;;;1.00;0.57;;;17.10;71.40;;;;;;5072434;28;20024;-30
2024/04/07 03:38:46;;;;;;;1.27;0.60;;;17.10;71.30;;;;;;5071971;28;20098;-31
2024/04/07 03:41:12;;;;;;;2.05;0.77;;;17.20;71.30;;;;;;5070705;28;20342;-30
2024/04/07 03:43:38;;;;;;;1.40;0.60;;;17.20;71.20;;;;;;5072351;28;20532;-33
2024/04/07 03:46:03;;;;;;;1.67;1.00;;;17.20;71.10;;;;;;5072209;28;20113;-47
2024/04/07 03:48:33;;;;;;;1.42;0.90;;;17.20;71.00;;;;;;5072264;28;20050;-31
2024/04/07 03:50:58;;;;;;;1.83;0.82;;;17.20;71.00;;;;;;5072145;28;20108;-31
2024/04/07 03:53:27;;;;;;;1.20;0.50;;;17.20;71.00;;;;;;5072728;28;20525;-32
2024/04/07 03:55:53;;;;;;;1.25;0.50;;;17.20;70.90;;;;;;5076540;28;20029;-30
2024/04/07 03:58:19;;;;;;;1.88;0.60;;;17.20;70.90;;;;;;5076268;28;20025;-31
2024/04/07 04:00:44;;;;;;;2.30;0.65;;;17.20;70.70;;;;;;5076046;28;20029;-31
2024/04/07 04:03:10;;;;;;;1.98;1.17;;;17.30;70.70;;;;;;5075976;28;20067;-34
2024/04/07 04:05:36;;;;;;;0.77;0.45;;;17.20;70.50;;;;;;5076364;28;20030;-34
2024/04/07 04:08:02;;;;;;;1.52;0.60;;;17.30;70.40;;;;;;5074589;28;20016;-31
2024/04/07 04:10:27;;;;;;;1.00;0.55;;;17.20;70.20;;;;;;5076348;28;20141;-31
2024/04/07 04:12:53;;;;;;;2.05;0.73;;;17.30;70.20;;;;;;5075890;28;20031;-36
2024/04/07 04:15:19;;;;;;;1.55;0.45;;;17.30;70.00;;;;;;5075723;28;20028;-32
2024/04/07 04:17:44;;;;;;;0.77;0.40;;;17.30;69.70;;;;;;5076102;28;20048;-30
2024/04/07 04:20:11;;;;;;;1.10;0.30;;;17.30;69.50;;;;;;5075625;28;20017;-33
2024/04/07 04:22:36;;;;;;;0.40;0.30;;;17.30;69.40;;;;;;5075798;28;20028;-32
2024/04/07 04:25:02;;;;;;;0.60;0.30;;;17.30;69.20;;;;;;5075746;28;20099;-31
2024/04/07 04:27:29;;;;;;;1.08;0.45;;;17.30;68.90;;;;;;5075489;28;20025;-35
2024/04/07 04:29:54;;;;;;;0.88;0.43;;;17.30;68.80;;;;;;5075647;28;20032;-41
2024/04/07 04:32:20;;;;;;;1.85;0.38;;;17.30;68.70;;;;;;5075322;28;20031;-34
2024/04/07 04:34:46;;;;;;;1.55;0.30;;;17.30;68.50;;;;;;5075531;28;20103;-34
2024/04/07 04:37:12;;;;;;;0.50;0.40;;;17.30;68.30;;;;;;5073821;28;20083;-30
2024/04/07 04:39:38;;;;;;;0.43;0.22;;;17.30;68.00;;;;;;5075302;28;20044;-32
2024/04/07 04:42:04;;;;;;;1.05;0.40;;;17.30;67.70;;;;;;5075229;28;20020;-31
2024/04/07 04:44:29;;;;;;;1.80;0.30;;;17.40;67.60;;;;;;5075077;28;20035;-33
2024/04/07 04:46:55;;;;;;;0.93;0.47;;;17.40;67.30;;;;;;5075456;28;20031;-34
2024/04/07 04:49:20;;;;;;;2.28;0.40;;;17.40;67.10;;;;;;5074962;28;20115;-34
2024/04/07 04:51:48;;;;;;;0.43;0.30;;;17.40;67.00;;;;;;5074822;28;20074;-37
2024/04/07 04:54:14;;;;;;;0.90;0.40;;;17.40;66.90;;;;;;5075345;28;20521;-30
2024/04/07 04:56:40;;;;;;;1.30;0.35;;;17.40;66.70;;;;;;5075032;28;20071;-31
2024/04/07 04:59:05;;;;;;;1.17;0.30;;;17.40;66.80;;;;;;5075069;28;20478;-31
2024/04/07 05:01:32;;;;;;;1.42;0.20;;;17.30;66.70;;;;;;5074739;28;20489;-31
2024/04/07 05:03:58;;;;;;;0.30;0.20;;;17.30;66.50;;;;;;5075326;28;20043;-32
2024/04/07 05:06:24;;;;;;;0.80;0.30;;;17.30;66.40;;;;;;5073791;28;20104;-31
2024/04/07 05:08:50;;;;;;;0.28;0.28;;;17.30;66.30;;;;;;5075093;28;20635;-30
2024/04/07 05:11:16;;;;;;;0.43;0.20;;;17.30;65.90;;;;;;5074975;28;20070;-30
2024/04/07 05:13:42;;;;;;;0.75;0.28;;;17.30;66.00;;;;;;5075183;28;20107;-36
2024/04/07 05:16:07;;;;;;;0.47;0.22;;;17.30;65.80;;;;;;5074747;28;20031;-35
2024/04/07 05:18:34;;;;;;;1.17;0.30;;;17.30;65.80;;;;;;5074686;28;20027;-31
2024/04/07 05:21:04;;;;;;;0.47;0.20;;;17.30;65.60;;;;;;5074660;28;20027;-35
2024/04/07 05:23:39;;;;;;;1.02;0.28;;;17.20;65.40;;;;;;5074945;28;20060;-31
2024/04/07 05:26:18;;;;;;;0.95;0.22;;;17.20;65.50;;;;;;5075022;28;20025;-30
2024/04/07 05:28:44;;;;;;;1.25;0.38;;;17.20;65.40;;;;;;5074770;28;20031;-32
2024/04/07 05:31:12;;;;;;;1.27;0.20;;;17.20;65.40;;;;;;5074506;28;20028;-31
2024/04/07 05:33:46;;;;;;;1.13;0.40;;;17.20;65.50;;;;;;5074696;28;20028;-32
2024/04/07 05:36:12;;;;;;;0.38;0.20;;;17.20;65.60;;;;;;5074364;28;20029;-34
2024/04/07 05:38:39;;;;;;;1.15;0.30;;;17.10;65.60;;;;;;5074093;28;20045;-33
2024/04/07 05:41:06;;;;;;;0.35;0.28;;;17.10;65.70;;;;;;5074410;28;20108;-32
2024/04/07 05:43:32;;;;;;;1.55;0.30;;;17.10;65.70;;;;;;5074528;28;20028;-38
2024/04/07 05:46:03;;;;;;;1.08;0.30;;;17.10;65.70;;;;;;5074169;28;20020;-33
2024/04/07 05:48:29;;;;;;;0.45;0.13;;;17.10;65.80;;;;;;5074368;28;20055;-32
2024/04/07 05:50:55;;;;;;;0.82;0.30;;;17.10;65.90;;;;;;5074324;28;20016;-30
2024/04/07 05:53:21;;;;;;;0.30;0.20;;;17.10;66.00;;;;;;5074049;28;20029;-35
2024/04/07 05:55:46;;;;;;;0.90;0.30;;;17.10;66.00;;;;;;5074095;28;20025;-35
2024/04/07 05:58:12;;;;;;;0.45;0.30;;;17.10;66.00;;;;;;5073718;28;20025;-31
2024/04/07 06:00:38;;;;;;;0.75;0.20;;;17.10;66.10;;;;;;5074064;28;20031;-35
2024/04/07 06:03:04;;;;;;;0.95;0.30;;;17.10;66.10;;;;;;5073786;28;20020;-33
2024/04/07 06:05:32;;;;;;;0.90;0.43;;;17.10;66.20;;;;;;5073631;28;20029;-32
2024/04/07 06:07:58;;;;;;;0.73;0.40;;;17.10;66.30;;;;;;5073563;28;20095;-31
2024/04/07 06:10:24;;;;;;;0.80;0.30;;;17.10;66.30;;;;;;5073820;28;20142;-41
2024/04/07 06:12:51;;;;;;;1.17;0.30;;;17.10;66.40;;;;;;5073583;28;20025;-33
2024/04/07 06:15:18;;;;;;;0.98;0.35;;;17.10;66.50;;;;;;5072240;28;20048;-31
2024/04/07 06:17:47;;;;;;;0.90;0.52;;;17.10;66.60;;;;;;5072059;28;20025;-31
2024/04/07 06:20:13;;;;;;;1.15;0.40;;;17.00;66.70;;;;;;5073469;28;20021;-30
2024/04/07 06:22:38;;;;;;;1.58;0.50;;;17.00;66.90;;;;;;5073676;28;20027;-31
2024/04/07 06:25:04;;;;;;;1.23;0.43;;;17.00;67.00;;;;;;5073542;28;20024;-32
2024/04/07 06:27:31;;;;;;;0.75;0.32;;;16.90;67.10;;;;;;5073472;28;20103;-35
2024/04/07 06:29:58;;;;;;;1.80;0.30;;;16.90;67.20;;;;;;5073470;28;20029;-33
2024/04/07 06:32:25;;;;;;;1.05;0.40;;;16.90;67.40;;;;;;5073100;28;20025;-33
2024/04/07 06:34:51;;;;;;;2.42;0.40;;;16.80;67.50;;;;;;5073296;28;20561;-31
2024/04/07 06:37:16;;;;;;;0.85;0.30;;;16.80;67.60;;;;;;5072783;28;20132;-33
2024/04/07 06:39:42;;;;;;;0.98;0.40;;;16.80;67.80;;;;;;5073031;28;20090;-30
2024/04/07 06:42:07;;;;;;;1.80;0.50;;;16.70;67.90;;;;;;5072961;28;20519;-34
2024/04/07 06:44:33;;;;;;;1.15;0.50;;;16.70;68.00;;;;;;5073313;28;20521;-31
2024/04/07 06:47:00;;;;;;;1.42;0.60;;;16.70;68.10;;;;;;5072868;28;20458;-30
2024/04/07 06:49:26;;;;;;;1.23;0.50;;;16.70;68.20;;;;;;5072998;28;20170;-33
2024/04/07 06:51:51;;;;;;;0.95;0.50;;;16.70;68.20;;;;;;5072966;28;20154;-32
2024/04/07 06:54:17;;;;;;;1.95;0.50;;;16.70;68.30;;;;;;5072693;28;20029;-36
2024/04/07 06:56:43;;;;;;;1.10;0.50;;;16.70;68.40;;;;;;5073085;28;20377;-34
2024/04/07 06:59:08;;;;;;;1.13;0.40;;;16.70;68.50;;;;;;5072644;28;20674;-32
2024/04/07 07:01:34;;;;;;;1.13;0.35;;;16.70;68.60;;;;;;5072574;28;20024;-30
2024/04/07 07:03:59;;;;;;;1.45;0.40;;;16.70;68.70;;;;;;5072675;28;20029;-32
2024/04/07 07:06:25;;;;;;;2.22;0.32;;;16.70;68.80;;;;;;5072785;28;20111;-31
2024/04/07 07:08:50;;;;;;;1.80;0.50;;;16.70;68.90;;;;;;5072587;28;20024;-31
2024/04/07 07:11:16;;;;;;;0.77;0.50;;;16.70;68.90;;;;;;5072508;28;20607;-36
2024/04/07 07:13:42;;;;;;;0.90;0.43;;;16.70;68.90;;;;;;5072828;28;20023;-32
2024/04/07 07:16:09;;;;;;;1.27;0.45;;;16.80;68.90;;;;;;5072594;28;20024;-32
2024/04/07 07:18:35;;;;;;;0.63;0.47;;;16.80;68.90;;;;;;5072546;28;20397;-31
2024/04/07 07:21:00;;;;;;;1.10;0.45;;;16.90;68.90;;;;;;5072196;28;20103;-33
2024/04/07 07:23:26;;;;;;;1.05;0.45;;;16.90;68.90;;;;;;5072339;28;20525;-30
2024/04/07 07:25:53;;;;;;;1.80;0.50;;;16.90;68.90;;;;;;5072303;28;20432;-33
2024/04/07 07:28:19;;;;;;;1.70;0.50;;;16.90;69.00;;;;;;5071729;28;20052;-32
2024/04/07 07:30:45;;;;;;;1.90;0.60;;;16.90;69.10;;;;;;5072187;28;20389;-32
2024/04/07 07:33:10;;;;;;;1.27;0.55;;;16.90;69.10;;;;;;5072153;28;20078;-35
2024/04/07 07:35:39;;;;;;;1.45;0.40;;;16.80;69.20;;;;;;5072512;28;20016;-35
2024/04/07 07:38:05;;;;;;;0.63;0.40;;;16.80;69.90;;;;;;5071923;28;20105;-30
2024/04/07 07:40:30;;;;;;;2.70;0.60;;;16.80;69.40;;;;;;5070982;28;20111;-35
2024/04/07 07:42:56;;;;;;;2.53;0.70;;;16.80;69.50;;;;;;5072169;28;20382;-46
2024/04/07 07:45:22;;;;;;;2.60;0.57;;;16.80;69.60;;;;;;5072119;28;20025;-44
2024/04/07 07:47:52;;;;;;;1.40;0.55;;;16.80;69.70;;;;;;5072496;28;20031;-43
2024/04/07 07:50:17;;;;;;;3.30;0.77;;;16.80;69.90;;;;;;5072151;28;20017;-45
2024/04/07 07:52:45;;;;;;;0.90;0.40;;;16.80;69.90;;;;;;5071961;28;20027;-44
2024/04/07 07:55:10;;;;;;;2.03;0.75;;;16.80;70.00;;;;;;5072087;28;20024;-35
2024/04/07 07:57:36;;;;;;;1.65;0.50;;;16.80;69.90;;;;;;5072255;28;20131;-39
2024/04/07 08:00:04;;;;;;;0.93;0.50;;;16.90;69.90;;;;;;5071992;28;20469;-35
2024/04/07 08:02:31;;;;;;;1.02;0.50;;;17.00;70.00;;;;;;5072204;28;20012;-36
2024/04/07 08:04:56;;;;;;;1.55;0.50;;;17.00;69.90;;;;;;5071895;28;20553;-36
2024/04/07 08:07:22;;;;;;;1.25;0.40;;;17.10;69.80;;;;;;5071372;28;20084;-38
2024/04/07 08:09:48;;;;;;;1.95;0.70;;;17.10;69.80;;;;;;5071592;28;20025;-37
2024/04/07 08:12:14;;;;;;;2.20;0.60;;;17.20;69.80;;;;;;5071319;28;20410;-38
2024/04/07 08:14:40;;;;;;;1.42;0.50;;;17.20;69.70;;;;;;5070240;28;20373;-38
2024/04/07 08:17:05;;;;;;;2.50;0.65;;;17.30;69.70;;;;;;5071775;28;20028;-38
2024/04/07 08:19:31;;;;;;;2.50;0.80;;;17.30;69.60;;;;;;5071889;28;20028;-39
2024/04/07 08:21:56;;;;;;;2.67;0.75;;;17.40;69.60;;;;;;5071854;28;20469;-36
2024/04/07 08:24:22;;;;;;;1.05;0.60;;;17.40;69.60;;;;;;5071829;28;20020;-36
2024/04/07 08:26:48;;;;;;;1.70;0.50;;;17.40;69.60;;;;;;5071876;28;20025;-36
2024/04/07 08:29:13;;;;;;;2.45;0.80;;;17.50;69.60;;;;;;5071830;28;20035;-37
2024/04/07 08:31:39;;;;;;;3.05;0.80;;;17.50;69.60;;;;;;5072117;28;20017;-36
2024/04/07 08:34:04;;;;;;;1.70;0.75;;;17.50;69.50;;;;;;5071920;28;20476;-37
2024/04/07 08:36:30;;;;;;;1.90;1.00;;;17.60;69.50;;;;;;5071556;28;20024;-36
2024/04/07 08:38:55;;;;;;;5.32;1.45;;;17.70;69.40;;;;;;5071816;28;20036;-38
2024/04/07 08:41:21;;;;;;;1.35;0.88;;;17.70;69.40;;;;;;5074923;28;20020;-37
2024/04/07 08:43:49;;;;;;;1.90;0.68;;;17.70;69.40;;;;;;5075761;28;20469;-35
2024/04/07 08:46:16;;;;;;;3.13;0.93;;;17.70;69.30;;;;;;5075424;28;20017;-38
2024/04/07 08:48:45;;;;;;;3.03;0.80;;;17.80;69.20;;;;;;5075689;28;20028;-37
2024/04/07 08:51:11;;;;;;;2.03;0.90;;;17.80;69.20;;;;;;5075395;28;20025;-37
2024/04/07 08:53:41;;;;;;;2.03;0.90;;;17.80;69.10;;;;;;5075319;28;20044;-38
2024/04/07 08:56:12;;;;;;;2.13;0.90;;;17.80;69.00;;;;;;5075314;28;20037;-35
2024/04/07 08:58:40;;;;;;;2.28;0.90;;;17.90;69.00;;;;;;5075100;28;20031;-36
2024/04/07 09:01:10;;;;;;;2.83;1.00;;;17.90;69.00;;;;;;5075064;28;20020;-36
2024/04/07 09:03:37;;;;;;;1.88;0.90;;;17.90;68.90;;;;;;5075034;28;20028;-37
2024/04/07 09:06:03;;;;;;;1.35;0.70;;;18.00;68.70;;;;;;5075078;28;20389;-38
2024/04/07 09:08:28;;;;;;;3.13;1.00;;;18.00;68.60;;;;;;5074960;28;20021;-52
2024/04/07 09:10:54;;;;;;;2.35;0.73;;;18.10;68.50;;;;;;5075013;28;20028;-37
2024/04/07 09:13:19;;;;;;;1.85;0.77;;;18.10;68.40;;;;;;5074731;28;20147;-39
2024/04/07 09:15:45;;;;;;;4.60;0.80;;;18.10;68.30;;;;;;5075013;28;20028;-38
2024/04/07 09:18:11;;;;;;;1.50;0.77;;;18.20;68.20;;;;;;5074695;28;20052;-39
2024/04/07 09:20:37;;;;;;;2.72;0.80;;;18.20;68.00;;;;;;5075196;28;20157;-39
2024/04/07 09:23:03;;;;;;;3.15;0.70;;;18.20;68.00;;;;;;5074675;28;20059;-36
2024/04/07 09:25:29;;;;;;;3.47;1.10;;;18.20;67.80;;;;;;5074633;28;20028;-37
2024/04/07 09:27:57;;;;;;;1.90;0.80;;;18.20;67.70;;;;;;5074970;28;20108;-37
2024/04/07 09:30:23;;;;;;;2.20;0.80;;;18.20;67.70;;;;;;5074582;28;20407;-36
2024/04/07 09:32:49;;;;;;;2.72;0.90;;;18.30;67.70;;;;;;5073210;28;20109;-36
2024/04/07 09:35:15;;;;;;;2.65;0.90;;;18.30;67.50;;;;;;5074407;28;20025;-37
2024/04/07 09:37:41;;;;;;;2.22;0.65;;;18.30;67.50;;;;;;5074154;28;20485;-37
2024/04/07 09:40:07;;;;;;;2.80;1.40;;;18.30;67.30;;;;;;5074367;28;20035;-35
2024/04/07 09:42:37;;;;;;;2.25;1.13;;;18.30;66.90;;;;;;5074350;28;20103;-36
2024/04/07 09:45:06;;;;;;;2.80;1.00;;;18.40;67.00;;;;;;5074343;28;20086;-37
2024/04/07 09:47:35;;;;;;;2.22;0.85;;;18.40;66.60;;;;;;5074631;28;20420;-36
2024/04/07 09:50:16;;;;;;;2.95;0.70;;;18.50;66.30;;;;;;5074650;28;20012;-36
2024/04/07 09:52:48;;;;;;;2.15;0.70;;;18.50;66.30;;;;;;5073585;28;20024;-38
2024/04/07 09:55:16;;;;;;;2.55;0.70;;;18.50;66.30;;;;;;5074244;28;20024;-37
2024/04/07 09:57:42;;;;;;;2.22;0.70;;;18.50;66.20;;;;;;5074119;28;20021;-37
2024/04/07 10:00:12;;;;;;;2.33;0.80;;;18.60;66.30;;;;;;5074175;28;20123;-38
2024/04/07 10:02:39;;;;;;;1.90;0.88;;;18.70;66.20;;;;;;5073849;28;20140;-39
2024/04/07 10:05:05;;;;;;;2.08;0.68;;;18.70;66.00;;;;;;5074250;28;20017;-37
2024/04/07 10:07:34;;;;;;;2.03;0.65;;;18.70;65.90;;;;;;5073883;28;20469;-37
2024/04/07 10:10:01;;;;;;;1.27;0.50;;;18.80;65.90;;;;;;5073813;28;20035;-40
2024/04/07 10:12:31;;;;;;;0.90;0.68;;;18.80;65.50;;;;;;5073762;28;20107;-37
2024/04/07 10:14:58;;;;;;;5.30;0.77;;;18.90;65.40;;;;;;5073653;28;20070;-38
2024/04/07 10:17:29;;;;;;;3.20;0.70;;;18.90;64.80;;;;;;5073585;28;20033;-37
2024/04/07 10:19:56;;;;;;;1.20;0.98;;;19.00;64.80;;;;;;5073624;28;20024;-38
2024/04/07 10:22:23;;;;;;;3.00;0.88;;;19.00;64.70;;;;;;5073758;28;20044;-38
2024/04/07 10:24:50;;;;;;;2.97;0.90;;;19.00;64.50;;;;;;5073876;28;20405;-37
2024/04/07 10:27:24;;;;;;;1.20;0.63;;;19.00;64.60;;;;;;5073522;28;20388;-37
2024/04/07 10:29:54;;;;;;;1.05;0.60;;;18.90;64.50;;;;;;5073451;28;20085;-35
2024/04/07 10:32:26;;;;;;;1.95;0.70;;;18.90;64.40;;;;;;5073363;28;20036;-39
2024/04/07 10:35:09;;;;;;;1.07;0.57;;;19.00;64.20;;;;;;5073758;28;20057;-37
2024/04/07 10:37:40;;;;;;;1.73;0.70;;;19.10;64.10;;;;;;5073260;28;20286;-39
2024/04/07 10:40:08;;;;;;;1.83;0.88;;;19.20;63.60;;;;;;5073321;28;20028;-38
2024/04/07 10:42:34;;;;;;;1.55;0.60;;;19.30;63.30;;;;;;5072328;28;20097;-36
2024/04/07 10:45:01;;;;;;;2.45;0.75;;;19.40;63.10;;;;;;5073160;28;20020;-38
2024/04/07 10:47:27;;;;;;;0.95;0.68;;;19.40;62.40;;;;;;5073130;28;20040;-37
2024/04/07 10:49:54;;;;;;;1.88;1.00;;;19.50;62.60;;;;;;5073062;28;20478;-36
2024/04/07 10:52:20;;;;;;;1.05;0.60;;;19.50;62.40;;;;;;5072807;28;20549;-35
2024/04/07 10:54:46;;;;;;;2.15;0.95;;;19.60;62.20;;;;;;5072989;28;20059;-38
2024/04/07 10:57:16;;;;;;;2.78;0.85;;;19.70;61.80;;;;;;5073301;28;20021;-35
2024/04/07 10:59:42;;;;;;;2.72;0.70;;;19.80;61.40;;;;;;5073005;28;20032;-37
2024/04/07 11:02:08;;;;;;;1.13;0.55;;;19.80;61.50;;;;;;5072610;28;20050;-35
2024/04/07 11:04:37;;;;;;;2.38;0.80;;;19.90;61.00;;;;;;5072414;28;20027;-46
2024/04/07 11:07:04;;;;;;;2.17;0.75;;;19.90;61.10;;;;;;5072619;28;20063;-51
2024/04/07 11:09:31;;;;;;;2.55;0.77;;;20.00;60.30;;;;;;5072691;28;20025;-37
2024/04/07 11:11:58;;;;;;;1.85;0.65;;;20.00;60.00;;;;;;5072657;28;20028;-39
2024/04/07 11:14:28;;;;;;;2.80;0.70;;;20.00;60.10;;;;;;5072652;28;20031;-37
2024/04/07 11:16:55;;;;;;;1.38;0.60;;;20.00;60.10;;;;;;5071381;28;20036;-39
2024/04/07 11:19:25;;;;;;;1.05;0.80;;;20.00;59.80;;;;;;5072250;28;20027;-37
2024/04/07 11:21:51;;;;;;;2.53;0.88;;;20.00;59.60;;;;;;5072692;28;20454;-37
2024/04/07 11:24:20;;;;;;;1.35;0.70;;;20.00;59.70;;;;;;5072470;28;20099;-37
2024/04/07 11:26:47;;;;;;;1.98;0.90;;;20.10;59.70;;;;;;5072742;28;20120;-38
2024/04/07 11:29:15;;;;;;;1.40;0.60;;;20.10;59.60;;;;;;5072751;28;20089;-36
2024/04/07 11:31:41;;;;;;;1.27;0.52;;;20.10;59.20;;;;;;5072444;28;20027;-37
2024/04/07 11:34:06;;;;;;;2.05;0.70;;;20.20;59.30;;;;;;5072420;28;20091;-36
2024/04/07 11:36:32;;;;;;;1.35;0.60;;;20.20;59.60;;;;;;5072240;28;20082;-36
2024/04/07 11:38:58;;;;;;;2.42;0.70;;;20.30;59.50;;;;;;5072414;28;20044;-38
2024/04/07 11:41:23;;;;;;;2.92;0.82;;;20.30;59.20;;;;;;5072391;28;20056;-37
2024/04/07 11:43:49;;;;;;;1.13;0.70;;;20.40;58.70;;;;;;5072300;28;20016;-37
2024/04/07 11:46:16;;;;;;;1.50;0.50;;;20.50;58.10;;;;;;5072268;28;20024;-36
2024/04/07 11:48:42;;;;;;;1.52;0.63;;;20.50;57.10;;;;;;5072430;28;20027;-36
2024/04/07 11:51:08;;;;;;;1.67;0.47;;;20.50;57.50;;;;;;5072047;28;20036;-38
2024/04/07 11:53:34;;;;;;;1.05;0.60;;;20.60;57.00;;;;;;5072419;28;20036;-38
2024/04/07 11:56:00;;;;;;;3.15;0.70;;;20.70;56.60;;;;;;5072221;28;20043;-43
2024/04/07 11:58:25;;;;;;;1.00;0.45;;;20.70;56.10;;;;;;5072039;28;20029;-38
2024/04/07 12:00:52;;;;;;;3.95;0.63;;;20.70;55.90;;;;;;5072325;28;20020;-37
2024/04/07 12:03:18;;;;;;;1.05;0.57;;;20.70;55.80;;;;;;5072270;28;20013;-37
2024/04/07 12:05:44;;;;;;;1.50;0.40;;;20.80;55.80;;;;;;5070503;28;20582;-37
2024/04/07 12:08:10;;;;;;;2.78;0.50;;;20.80;55.90;;;;;;5071899;28;20028;-38
2024/04/07 12:10:36;;;;;;;1.40;0.50;;;21.00;56.10;;;;;;5071894;28;20066;-38
2024/04/07 12:13:01;;;;;;;1.00;0.50;;;21.00;55.70;;;;;;5071732;28;20032;-37
2024/04/07 12:15:27;;;;;;;1.27;0.52;;;21.10;55.90;;;;;;5073630;28;20016;-38
2024/04/07 12:17:52;;;;;;;0.63;0.45;;;21.20;56.00;;;;;;5075667;28;20124;-35
2024/04/07 12:20:18;;;;;;;0.98;0.50;;;21.30;55.90;;;;;;5074298;28;20044;-37
2024/04/07 12:22:45;;;;;;;1.27;0.60;;;21.30;55.60;;;;;;5075572;28;20024;-35
2024/04/07 12:25:11;;;;;;;0.93;0.52;;;21.30;54.60;;;;;;5074390;28;20031;-36
2024/04/07 12:27:37;;;;;;;2.15;1.00;;;21.30;55.00;;;;;;5075813;28;20024;-38
2024/04/07 12:30:02;;;;;;;1.48;0.80;;;21.40;54.60;;;;;;5075511;28;20028;-34
2024/04/07 12:32:29;;;;;;;1.23;0.65;;;21.40;55.30;;;;;;5075426;28;20090;-49
2024/04/07 12:34:54;;;;;;;1.50;0.60;;;21.50;55.50;;;;;;5075832;28;20017;-40
2024/04/07 12:37:20;;;;;;;1.52;0.70;;;21.50;55.20;;;;;;5075413;28;20041;-36
2024/04/07 12:39:46;;;;;;;2.00;0.60;;;21.50;54.30;;;;;;5075392;28;20033;-36
2024/04/07 12:42:11;;;;;;;2.00;0.90;;;21.60;54.20;;;;;;5075547;28;20082;-38
2024/04/07 12:44:37;;;;;;;0.70;0.50;;;21.60;53.20;;;;;;5075530;28;20023;-38
2024/04/07 12:47:03;;;;;;;1.17;0.60;;;21.60;53.30;;;;;;5075457;28;20040;-36
2024/04/07 12:49:29;;;;;;;2.40;0.95;;;21.60;53.30;;;;;;5075525;28;20028;-38